createdAt,value
2019-06-10T00:00:11.794Z,0.00
2019-06-10T00:01:08.219Z,0.00
2019-06-10T00:02:05.815Z,0.00
2019-06-10T00:03:06.010Z,0.00
2019-06-10T00:04:08.419Z,0.00
2019-06-10T00:05:05.973Z,0.00
2019-06-10T00:06:05.724Z,0.00
2019-06-10T00:07:05.871Z,0.00
2019-06-10T00:08:05.785Z,0.00
2019-06-10T00:09:07.645Z,0.00
2019-06-10T00:10:06.170Z,0.00
2019-06-10T00:11:06.142Z,0.00
2019-06-10T00:12:06.001Z,0.00
2019-06-10T00:13:05.704Z,0.00
2019-06-10T00:14:06.062Z,0.00
2019-06-10T00:15:05.939Z,0.00
2019-06-10T00:16:06.299Z,0.00
2019-06-10T00:17:06.308Z,0.00
2019-06-10T00:18:26.924Z,0.00
2019-06-10T00:19:06.887Z,0.00
2019-06-10T00:20:05.425Z,0.00
2019-06-10T00:21:05.512Z,0.00
2019-06-10T00:22:06.605Z,0.00
2019-06-10T00:23:05.649Z,0.00
2019-06-10T00:24:05.661Z,0.00
2019-06-10T00:25:05.784Z,0.00
2019-06-10T00:26:07.534Z,0.00
2019-06-10T00:27:05.924Z,0.00
2019-06-10T00:28:06.080Z,0.00
2019-06-10T00:29:05.876Z,0.00
2019-06-10T00:30:06.489Z,0.00
2019-06-10T00:31:05.724Z,0.00
2019-06-10T00:32:06.546Z,0.00
2019-06-10T00:33:06.078Z,0.00
2019-06-10T00:34:05.974Z,0.00
2019-06-10T00:35:05.967Z,0.00
2019-06-10T00:36:07.046Z,0.00
2019-06-10T00:37:06.316Z,0.00
2019-06-10T00:38:07.229Z,0.00
2019-06-10T00:39:06.512Z,0.00
2019-06-10T00:40:05.947Z,0.00
2019-06-10T00:41:07.230Z,0.00
2019-06-10T00:42:07.590Z,0.00
2019-06-10T00:43:06.581Z,0.00
2019-06-10T00:44:05.648Z,0.00
2019-06-10T00:45:06.989Z,0.00
2019-06-10T00:46:05.917Z,0.00
2019-06-10T00:47:06.501Z,0.00
2019-06-10T00:48:12.430Z,0.00
2019-06-10T00:49:06.297Z,0.00
2019-06-10T00:50:07.292Z,0.00
2019-06-10T00:51:05.737Z,0.00
2019-06-10T00:52:05.813Z,0.00
2019-06-10T00:53:05.872Z,0.00
2019-06-10T00:54:05.308Z,0.00
2019-06-10T00:55:05.838Z,0.00
2019-06-10T00:56:05.673Z,0.00
2019-06-10T00:57:05.504Z,0.00
2019-06-10T00:58:05.688Z,0.00
2019-06-10T00:59:05.475Z,0.00
2019-06-10T01:00:14.541Z,0.00
2019-06-10T01:01:05.989Z,0.00
2019-06-10T01:02:05.050Z,0.00
2019-06-10T01:03:04.197Z,0.00
2019-06-10T01:04:06.532Z,0.00
2019-06-10T01:05:05.073Z,0.00
2019-06-10T01:06:04.726Z,0.00
2019-06-10T01:07:04.374Z,0.00
2019-06-10T01:08:04.609Z,0.00
2019-06-10T01:09:04.521Z,0.00
2019-06-10T01:10:04.693Z,0.00
2019-06-10T01:11:10.059Z,0.00
2019-06-10T01:12:05.099Z,0.00
2019-06-10T01:13:05.089Z,0.00
2019-06-10T01:14:05.180Z,0.00
2019-06-10T01:15:05.216Z,0.00
2019-06-10T01:16:05.318Z,0.00
2019-06-10T01:17:04.043Z,0.00
2019-06-10T01:18:04.037Z,0.00
2019-06-10T01:19:04.031Z,0.00
2019-06-10T01:20:04.014Z,0.00
2019-06-10T01:21:04.004Z,0.00
2019-06-10T01:22:03.993Z,0.00
2019-06-10T01:23:04.983Z,0.00
2019-06-10T01:24:05.028Z,0.00
2019-06-10T01:25:05.136Z,0.00
2019-06-10T01:26:05.597Z,0.00
2019-06-10T01:27:03.941Z,0.00
2019-06-10T01:28:03.933Z,0.00
2019-06-10T01:29:03.920Z,0.00
2019-06-10T01:30:11.292Z,0.00
2019-06-10T01:31:09.317Z,0.00
2019-06-10T01:32:05.218Z,0.00
2019-06-10T01:33:03.869Z,0.00
2019-06-10T01:34:03.861Z,0.00
2019-06-10T01:35:03.867Z,0.00
2019-06-10T01:36:03.856Z,0.00
2019-06-10T01:37:03.832Z,0.00
2019-06-10T01:38:03.817Z,0.00
2019-06-10T01:39:03.805Z,0.00
2019-06-10T01:40:03.801Z,0.00
2019-06-10T01:41:03.801Z,0.00
2019-06-10T01:42:03.778Z,0.00
2019-06-10T01:43:03.767Z,0.00
2019-06-10T01:44:03.762Z,0.00
2019-06-10T01:45:03.739Z,0.00
2019-06-10T01:46:03.738Z,0.00
2019-06-10T01:47:03.724Z,0.00
2019-06-10T01:48:03.716Z,0.00
2019-06-10T01:49:03.703Z,0.00
2019-06-10T01:50:03.689Z,0.00
2019-06-10T01:51:03.700Z,0.00
2019-06-10T01:52:03.672Z,0.00
2019-06-10T01:53:03.653Z,0.00
2019-06-10T01:54:03.645Z,0.00
2019-06-10T01:55:03.640Z,0.00
2019-06-10T01:56:03.634Z,0.00
2019-06-10T01:57:03.612Z,0.00
2019-06-10T01:58:03.601Z,0.00
2019-06-10T01:59:03.598Z,0.00
2019-06-10T02:00:09.216Z,0.00
2019-06-10T02:01:04.565Z,0.00
2019-06-10T02:02:03.564Z,0.00
2019-06-10T02:03:03.807Z,0.00
2019-06-10T02:04:03.541Z,0.00
2019-06-10T02:05:03.531Z,0.00
2019-06-10T02:06:03.519Z,0.00
2019-06-10T02:07:03.518Z,0.00
2019-06-10T02:08:03.492Z,0.00
2019-06-10T02:09:03.487Z,0.00
2019-06-10T02:10:03.472Z,0.00
2019-06-10T02:11:03.465Z,0.00
2019-06-10T02:12:03.474Z,0.00
2019-06-10T02:13:03.444Z,0.00
2019-06-10T02:14:03.439Z,0.00
2019-06-10T02:15:03.428Z,0.00
2019-06-10T02:16:03.414Z,0.00
2019-06-10T02:17:03.414Z,0.00
2019-06-10T02:18:03.412Z,0.00
2019-06-10T02:19:04.216Z,0.00
2019-06-10T02:20:03.361Z,0.00
2019-06-10T02:21:03.350Z,0.00
2019-06-10T02:22:03.342Z,0.00
2019-06-10T02:23:03.339Z,0.00
2019-06-10T02:24:03.331Z,0.00
2019-06-10T02:25:03.310Z,0.00
2019-06-10T02:26:03.298Z,0.00
2019-06-10T02:27:03.287Z,0.00
2019-06-10T02:28:03.278Z,0.00
2019-06-10T02:29:03.280Z,0.00
2019-06-10T02:30:13.554Z,0.00
2019-06-10T02:31:04.251Z,0.00
2019-06-10T02:32:04.854Z,0.00
2019-06-10T02:33:03.229Z,0.00
2019-06-10T02:34:03.236Z,0.00
2019-06-10T02:35:10.449Z,0.00
2019-06-10T02:36:04.875Z,0.00
2019-06-10T02:37:04.659Z,0.00
2019-06-10T02:38:03.634Z,0.00
2019-06-10T02:39:04.528Z,0.00
2019-06-10T02:40:04.449Z,0.00
2019-06-10T02:41:04.754Z,0.00
2019-06-10T02:42:04.503Z,0.00
2019-06-10T02:43:03.647Z,0.00
2019-06-10T02:44:04.334Z,0.00
2019-06-10T02:45:04.038Z,0.00
2019-06-10T02:46:04.270Z,0.00
2019-06-10T02:47:03.570Z,0.00
2019-06-10T02:48:04.201Z,0.00
2019-06-10T02:49:21.448Z,0.00
2019-06-10T02:50:08.308Z,0.00
2019-06-10T02:51:04.308Z,0.00
2019-06-10T02:52:03.596Z,0.00
2019-06-10T02:53:04.066Z,0.00
2019-06-10T02:54:04.782Z,0.00
2019-06-10T02:55:04.120Z,0.00
2019-06-10T02:56:04.141Z,0.00
2019-06-10T02:57:04.424Z,0.00
2019-06-10T02:58:03.904Z,0.00
2019-06-10T02:59:03.479Z,0.00
2019-06-10T03:00:06.441Z,0.00
2019-06-10T03:01:04.565Z,0.00
2019-06-10T03:02:03.179Z,0.00
2019-06-10T03:03:03.837Z,0.00
2019-06-10T03:04:04.364Z,0.00
2019-06-10T03:05:04.620Z,0.00
2019-06-10T03:06:07.401Z,0.00
2019-06-10T03:07:03.892Z,0.00
2019-06-10T03:08:03.846Z,0.00
2019-06-10T03:09:03.708Z,0.00
2019-06-10T03:10:04.635Z,0.00
2019-06-10T03:11:03.839Z,0.00
2019-06-10T03:12:04.601Z,0.00
2019-06-10T03:13:02.797Z,0.00
2019-06-10T03:14:02.787Z,0.00
2019-06-10T03:15:02.776Z,0.00
2019-06-10T03:16:02.911Z,0.00
2019-06-10T03:17:03.153Z,0.00
2019-06-10T03:18:02.776Z,0.00
2019-06-10T03:19:03.086Z,0.00
2019-06-10T03:20:02.715Z,0.00
2019-06-10T03:21:02.839Z,0.00
2019-06-10T03:22:02.860Z,0.00
2019-06-10T03:23:03.042Z,0.00
2019-06-10T03:24:02.823Z,0.00
2019-06-10T03:25:03.019Z,0.00
2019-06-10T03:26:04.209Z,0.00
2019-06-10T03:27:02.811Z,0.00
2019-06-10T03:28:03.122Z,0.00
2019-06-10T03:29:02.863Z,0.00
2019-06-10T03:30:08.949Z,0.00
2019-06-10T03:31:05.554Z,0.00
2019-06-10T03:32:04.977Z,5.62
2019-06-10T03:33:05.056Z,5.62
2019-06-10T03:34:05.152Z,5.62
2019-06-10T03:35:05.537Z,5.62
2019-06-10T03:36:03.237Z,5.62
2019-06-10T03:37:02.581Z,0.00
2019-06-10T03:38:03.059Z,0.00
2019-06-10T03:39:02.708Z,0.00
2019-06-10T03:40:02.655Z,0.00
2019-06-10T03:41:03.341Z,0.00
2019-06-10T03:42:02.481Z,0.00
2019-06-10T03:43:11.934Z,0.00
2019-06-10T03:44:02.707Z,0.00
2019-06-10T03:45:03.366Z,0.00
2019-06-10T03:46:03.262Z,0.00
2019-06-10T03:47:02.841Z,0.00
2019-06-10T03:48:03.761Z,0.00
2019-06-10T03:49:03.135Z,0.00
2019-06-10T03:50:03.265Z,0.00
2019-06-10T03:51:03.414Z,0.00
2019-06-10T03:52:02.571Z,0.00
2019-06-10T03:53:04.372Z,0.00
2019-06-10T03:54:02.655Z,0.00
2019-06-10T03:55:03.113Z,0.00
2019-06-10T03:56:02.576Z,5.62
2019-06-10T03:57:02.928Z,5.62
2019-06-10T03:58:02.394Z,5.62
2019-06-10T03:59:02.818Z,0.00
2019-06-10T04:00:10.510Z,0.00
2019-06-10T04:01:03.467Z,5.62
2019-06-10T04:02:02.462Z,5.62
2019-06-10T04:03:02.721Z,5.62
2019-06-10T04:04:02.451Z,5.62
2019-06-10T04:05:02.855Z,5.62
2019-06-10T04:06:02.604Z,5.62
2019-06-10T04:07:03.831Z,5.62
2019-06-10T04:08:02.292Z,5.62
2019-06-10T04:09:02.766Z,5.62
2019-06-10T04:10:02.419Z,5.62
2019-06-10T04:11:03.043Z,5.62
2019-06-10T04:12:02.194Z,11.25
2019-06-10T04:13:02.590Z,11.25
2019-06-10T04:14:02.458Z,11.25
2019-06-10T04:15:03.047Z,11.25
2019-06-10T04:16:02.531Z,11.25
2019-06-10T04:17:02.748Z,11.25
2019-06-10T04:18:03.931Z,5.62
2019-06-10T04:19:02.658Z,5.62
2019-06-10T04:20:11.691Z,5.62
2019-06-10T04:21:03.069Z,5.62
2019-06-10T04:22:02.579Z,5.62
2019-06-10T04:23:02.769Z,5.62
2019-06-10T04:24:02.371Z,5.62
2019-06-10T04:25:03.023Z,5.62
2019-06-10T04:26:02.442Z,11.25
2019-06-10T04:27:02.813Z,11.25
2019-06-10T04:28:03.278Z,11.25
2019-06-10T04:29:02.551Z,5.62
2019-06-10T04:30:03.313Z,5.62
2019-06-10T04:31:02.696Z,5.62
2019-06-10T04:32:03.087Z,5.62
2019-06-10T04:33:02.398Z,5.62
2019-06-10T04:34:03.199Z,11.25
2019-06-10T04:35:02.421Z,11.25
2019-06-10T04:36:02.853Z,11.25
2019-06-10T04:37:03.108Z,16.88
2019-06-10T04:38:02.554Z,16.88
2019-06-10T04:39:03.232Z,11.25
2019-06-10T04:40:02.915Z,11.25
2019-06-10T04:41:03.401Z,16.88
2019-06-10T04:42:02.422Z,16.88
2019-06-10T04:43:03.012Z,11.25
2019-06-10T04:44:02.757Z,11.25
2019-06-10T04:45:03.209Z,11.25
2019-06-10T04:46:02.561Z,11.25
2019-06-10T04:47:02.683Z,16.88
2019-06-10T04:48:03.043Z,11.25
2019-06-10T04:49:02.753Z,11.25
2019-06-10T04:50:03.145Z,11.25
2019-06-10T04:51:02.681Z,11.25
2019-06-10T04:52:03.154Z,11.25
2019-06-10T04:53:02.302Z,11.25
2019-06-10T04:54:03.068Z,16.88
2019-06-10T04:55:02.510Z,16.88
2019-06-10T04:56:02.959Z,16.88
2019-06-10T04:57:02.250Z,16.88
2019-06-10T04:58:02.509Z,16.88
2019-06-10T04:59:03.125Z,16.88
2019-06-10T05:00:04.068Z,16.88
2019-06-10T05:01:03.283Z,16.88
2019-06-10T05:02:02.452Z,16.88
2019-06-10T05:03:02.940Z,16.88
2019-06-10T05:04:03.116Z,16.88
2019-06-10T05:05:02.880Z,16.88
2019-06-10T05:06:03.272Z,22.50
2019-06-10T05:07:02.138Z,16.88
2019-06-10T05:08:02.644Z,16.88
2019-06-10T05:09:04.016Z,16.88
2019-06-10T05:10:03.264Z,16.88
2019-06-10T05:11:03.692Z,16.88
2019-06-10T05:12:02.828Z,16.88
2019-06-10T05:13:03.149Z,22.50
2019-06-10T05:14:02.740Z,22.50
2019-06-10T05:15:03.458Z,22.50
2019-06-10T05:16:03.566Z,22.50
2019-06-10T05:17:02.229Z,22.50
2019-06-10T05:18:03.348Z,22.50
2019-06-10T05:19:03.873Z,22.50
2019-06-10T05:20:02.487Z,28.12
2019-06-10T05:21:02.914Z,33.75
2019-06-10T05:22:03.123Z,33.75
2019-06-10T05:23:02.296Z,39.38
2019-06-10T05:24:02.907Z,39.38
2019-06-10T05:25:02.450Z,45.00
2019-06-10T05:26:02.759Z,45.00
2019-06-10T05:27:02.109Z,45.00
2019-06-10T05:28:02.883Z,50.62
2019-06-10T05:29:03.118Z,56.25
2019-06-10T05:30:02.305Z,61.88
2019-06-10T05:31:02.878Z,61.88
2019-06-10T05:32:02.501Z,61.88
2019-06-10T05:33:02.989Z,56.25
2019-06-10T05:34:02.364Z,56.25
2019-06-10T05:35:03.516Z,61.88
2019-06-10T05:36:02.521Z,61.88
2019-06-10T05:37:02.756Z,61.88
2019-06-10T05:38:02.451Z,67.50
2019-06-10T05:39:02.745Z,73.12
2019-06-10T05:40:02.253Z,73.12
2019-06-10T05:41:02.873Z,73.12
2019-06-10T05:42:03.294Z,78.75
2019-06-10T05:43:02.450Z,78.75
2019-06-10T05:44:02.698Z,84.38
2019-06-10T05:45:03.111Z,90.00
2019-06-10T05:46:02.822Z,95.62
2019-06-10T05:47:03.618Z,95.62
2019-06-10T05:48:02.844Z,78.75
2019-06-10T05:49:03.095Z,67.50
2019-06-10T05:50:03.284Z,56.25
2019-06-10T05:51:03.818Z,50.62
2019-06-10T05:52:02.131Z,45.00
2019-06-10T05:53:02.512Z,39.38
2019-06-10T05:54:02.182Z,45.00
2019-06-10T05:55:02.886Z,50.62
2019-06-10T05:56:02.216Z,56.25
2019-06-10T05:57:02.658Z,67.50
2019-06-10T05:58:02.565Z,78.75
2019-06-10T05:59:04.213Z,90.00
2019-06-10T06:00:10.754Z,101.25
2019-06-10T06:01:02.663Z,106.88
2019-06-10T06:02:02.328Z,106.88
2019-06-10T06:03:02.748Z,112.50
2019-06-10T06:04:03.166Z,112.50
2019-06-10T06:05:02.558Z,112.50
2019-06-10T06:06:03.256Z,106.88
2019-06-10T06:07:02.370Z,84.38
2019-06-10T06:08:05.563Z,67.50
2019-06-10T06:09:02.294Z,67.50
2019-06-10T06:10:02.407Z,73.12
2019-06-10T06:11:02.992Z,90.00
2019-06-10T06:12:02.502Z,101.25
2019-06-10T06:13:02.936Z,106.88
2019-06-10T06:14:02.696Z,123.75
2019-06-10T06:15:02.410Z,135.00
2019-06-10T06:16:03.010Z,140.62
2019-06-10T06:17:02.256Z,151.88
2019-06-10T06:18:07.213Z,163.12
2019-06-10T06:19:03.287Z,174.38
2019-06-10T06:20:02.775Z,208.12
2019-06-10T06:21:20.086Z,208.12
2019-06-10T06:22:02.234Z,230.62
2019-06-10T06:23:02.785Z,230.62
2019-06-10T06:24:03.846Z,270.00
2019-06-10T06:25:03.724Z,247.50
2019-06-10T06:26:03.652Z,219.38
2019-06-10T06:27:02.473Z,225.00
2019-06-10T06:28:02.872Z,202.50
2019-06-10T06:29:02.245Z,208.12
2019-06-10T06:30:04.084Z,213.75
2019-06-10T06:31:03.315Z,225.00
2019-06-10T06:32:02.712Z,230.62
2019-06-10T06:33:02.898Z,219.38
2019-06-10T06:34:02.964Z,213.75
2019-06-10T06:35:02.125Z,236.25
2019-06-10T06:36:03.298Z,247.50
2019-06-10T06:37:02.223Z,225.00
2019-06-10T06:38:02.586Z,213.75
2019-06-10T06:39:02.302Z,202.50
2019-06-10T06:40:02.862Z,191.25
2019-06-10T06:41:02.956Z,185.62
2019-06-10T06:42:02.230Z,185.62
2019-06-10T06:43:02.635Z,168.75
2019-06-10T06:44:02.307Z,163.12
2019-06-10T06:45:02.821Z,151.88
2019-06-10T06:46:02.418Z,106.88
2019-06-10T06:47:02.670Z,112.50
2019-06-10T06:48:02.879Z,112.50
2019-06-10T06:49:02.090Z,118.12
2019-06-10T06:50:02.659Z,123.75
2019-06-10T06:51:07.419Z,129.38
2019-06-10T06:52:02.899Z,135.00
2019-06-10T06:53:19.977Z,135.00
2019-06-10T06:54:03.281Z,135.00
2019-06-10T06:55:02.487Z,135.00
2019-06-10T06:56:02.995Z,140.62
2019-06-10T06:57:03.234Z,140.62
2019-06-10T06:58:00.374Z,146.25
2019-06-10T06:59:02.390Z,157.50
2019-06-10T07:00:00.359Z,163.12
2019-06-10T07:01:09.910Z,174.38
2019-06-10T07:02:02.778Z,163.12
2019-06-10T07:03:00.329Z,168.75
2019-06-10T07:04:02.427Z,168.75
2019-06-10T07:05:00.312Z,157.50
2019-06-10T07:06:02.624Z,157.50
2019-06-10T07:07:02.623Z,168.75
2019-06-10T07:08:02.366Z,185.62
2019-06-10T07:09:05.453Z,196.88
2019-06-10T07:10:03.372Z,196.88
2019-06-10T07:11:02.683Z,196.88
2019-06-10T07:12:02.496Z,208.12
2019-06-10T07:13:02.714Z,708.75
2019-06-10T07:14:00.226Z,528.75
2019-06-10T07:15:00.192Z,140.62
2019-06-10T07:16:02.921Z,123.75
2019-06-10T07:17:00.176Z,123.75
2019-06-10T07:18:02.337Z,135.00
2019-06-10T07:19:02.487Z,140.62
2019-06-10T07:20:00.144Z,146.25
2019-06-10T07:21:02.545Z,146.25
2019-06-10T07:22:09.643Z,157.50
2019-06-10T07:23:02.688Z,168.75
2019-06-10T07:24:00.101Z,174.38
2019-06-10T07:25:04.136Z,174.38
2019-06-10T07:26:02.274Z,196.88
2019-06-10T07:27:02.625Z,219.38
2019-06-10T07:28:02.036Z,275.62
2019-06-10T07:29:02.746Z,247.50
2019-06-10T07:30:00.038Z,258.75
2019-06-10T07:31:00.049Z,219.38
2019-06-10T07:32:00.017Z,236.25
2019-06-10T07:33:00.002Z,309.38
2019-06-10T07:34:02.433Z,270.00
2019-06-10T07:34:59.981Z,219.38
2019-06-10T07:35:59.992Z,208.12
2019-06-10T07:37:02.488Z,185.62
2019-06-10T07:37:59.972Z,180.00
2019-06-10T07:38:59.937Z,168.75
2019-06-10T07:39:59.928Z,163.12
2019-06-10T07:41:02.395Z,163.12
2019-06-10T07:41:59.911Z,168.75
2019-06-10T07:43:02.216Z,157.50
2019-06-10T07:43:59.898Z,157.50
2019-06-10T07:45:02.411Z,174.38
2019-06-10T07:45:59.862Z,202.50
2019-06-10T07:47:02.470Z,185.62
2019-06-10T07:47:59.862Z,180.00
2019-06-10T07:49:03.176Z,196.88
2019-06-10T07:49:59.822Z,185.62
2019-06-10T07:51:02.577Z,174.38
2019-06-10T07:52:13.025Z,191.25
2019-06-10T07:53:02.316Z,191.25
2019-06-10T07:53:59.779Z,174.38
2019-06-10T07:55:02.361Z,168.75
2019-06-10T07:55:59.761Z,168.75
2019-06-10T07:57:02.265Z,174.38
2019-06-10T07:57:59.739Z,180.00
2019-06-10T07:58:59.728Z,180.00
2019-06-10T07:59:59.709Z,185.62
2019-06-10T08:01:02.440Z,185.62
2019-06-10T08:01:59.701Z,163.12
2019-06-10T08:03:02.298Z,163.12
2019-06-10T08:03:59.676Z,168.75
2019-06-10T08:04:59.663Z,168.75
2019-06-10T08:05:59.649Z,180.00
2019-06-10T08:06:59.643Z,191.25
2019-06-10T08:07:59.624Z,213.75
2019-06-10T08:09:01.806Z,225.00
2019-06-10T08:09:59.602Z,264.38
2019-06-10T08:10:59.613Z,326.25
2019-06-10T08:12:03.386Z,315.00
2019-06-10T08:13:02.849Z,320.62
2019-06-10T08:13:59.571Z,264.38
2019-06-10T08:15:02.535Z,326.25
2019-06-10T08:15:59.545Z,382.50
2019-06-10T08:16:59.539Z,579.38
2019-06-10T08:17:59.545Z,545.62
2019-06-10T08:19:22.092Z,742.50
2019-06-10T08:20:02.546Z,500.62
2019-06-10T08:20:59.498Z,438.75
2019-06-10T08:21:59.489Z,433.12
2019-06-10T08:23:02.114Z,331.88
2019-06-10T08:23:59.466Z,331.88
2019-06-10T08:24:59.447Z,331.88
2019-06-10T08:25:59.469Z,275.62
2019-06-10T08:26:59.430Z,270.00
2019-06-10T08:27:59.417Z,253.12
2019-06-10T08:28:59.413Z,264.38
2019-06-10T08:30:14.083Z,320.62
2019-06-10T08:31:00.398Z,331.88
2019-06-10T08:31:59.366Z,360.00
2019-06-10T08:32:59.372Z,405.00
2019-06-10T08:33:59.350Z,292.50
2019-06-10T08:34:59.334Z,286.88
2019-06-10T08:36:00.787Z,270.00
2019-06-10T08:36:59.324Z,253.12
2019-06-10T08:37:59.310Z,208.12
2019-06-10T08:38:59.295Z,208.12
2019-06-10T08:39:59.285Z,213.75
2019-06-10T08:40:59.277Z,208.12
2019-06-10T08:41:59.304Z,208.12
2019-06-10T08:42:59.247Z,208.12
2019-06-10T08:43:59.237Z,247.50
2019-06-10T08:45:00.146Z,219.38
2019-06-10T08:45:59.220Z,208.12
2019-06-10T08:46:59.212Z,208.12
2019-06-10T08:47:59.207Z,208.12
2019-06-10T08:48:59.193Z,219.38
2019-06-10T08:49:59.174Z,236.25
2019-06-10T08:50:59.167Z,270.00
2019-06-10T08:51:59.158Z,511.88
2019-06-10T08:53:12.797Z,382.50
2019-06-10T08:54:02.336Z,241.88
2019-06-10T08:54:59.123Z,247.50
2019-06-10T08:55:59.112Z,247.50
2019-06-10T08:56:59.101Z,253.12
2019-06-10T08:57:59.098Z,281.25
2019-06-10T08:58:59.157Z,275.62
2019-06-10T08:59:59.071Z,292.50
2019-06-10T09:00:59.063Z,495.00
2019-06-10T09:01:59.049Z,618.75
2019-06-10T09:02:59.041Z,506.25
2019-06-10T09:03:59.022Z,551.25
2019-06-10T09:04:59.012Z,658.12
2019-06-10T09:05:59.000Z,596.25
2019-06-10T09:06:58.989Z,506.25
2019-06-10T09:07:58.991Z,393.75
2019-06-10T09:08:58.970Z,337.50
2019-06-10T09:09:58.985Z,354.38
2019-06-10T09:10:58.948Z,343.12
2019-06-10T09:11:58.946Z,371.25
2019-06-10T09:12:58.928Z,315.00
2019-06-10T09:13:58.915Z,292.50
2019-06-10T09:14:58.935Z,292.50
2019-06-10T09:16:10.984Z,292.50
2019-06-10T09:16:59.891Z,309.38
2019-06-10T09:17:58.884Z,371.25
2019-06-10T09:18:58.864Z,343.12
2019-06-10T09:19:58.853Z,405.00
2019-06-10T09:20:58.857Z,433.12
2019-06-10T09:21:58.837Z,607.50
2019-06-10T09:23:16.844Z,675.00
2019-06-10T09:24:03.510Z,517.50
2019-06-10T09:24:58.843Z,472.50
2019-06-10T09:25:58.789Z,348.75
2019-06-10T09:26:58.787Z,326.25
2019-06-10T09:27:58.774Z,416.25
2019-06-10T09:28:58.758Z,348.75
2019-06-10T09:29:58.747Z,337.50
2019-06-10T09:30:59.723Z,348.75
2019-06-10T09:31:58.744Z,376.88
2019-06-10T09:33:03.427Z,410.62
2019-06-10T09:33:59.711Z,444.38
2019-06-10T09:34:58.703Z,450.00
2019-06-10T09:35:58.688Z,433.12
2019-06-10T09:36:58.683Z,472.50
2019-06-10T09:37:58.666Z,540.00
2019-06-10T09:38:58.690Z,511.88
2019-06-10T09:39:59.880Z,618.75
2019-06-10T09:41:01.703Z,585.00
2019-06-10T09:42:02.782Z,444.38
2019-06-10T09:42:59.610Z,506.25
2019-06-10T09:44:05.660Z,534.38
2019-06-10T09:44:58.599Z,663.75
2019-06-10T09:45:58.578Z,826.88
2019-06-10T09:47:00.320Z,765.00
2019-06-10T09:48:00.117Z,658.12
2019-06-10T09:48:59.547Z,461.25
2019-06-10T09:49:58.552Z,376.88
2019-06-10T09:50:59.163Z,331.88
2019-06-10T09:51:58.516Z,315.00
2019-06-10T09:52:58.510Z,450.00
2019-06-10T09:54:05.570Z,455.62
2019-06-10T09:54:59.523Z,343.12
2019-06-10T09:55:58.478Z,270.00
2019-06-10T09:56:58.462Z,343.12
2019-06-10T09:58:00.060Z,236.25
2019-06-10T09:58:58.444Z,208.12
2019-06-10T09:59:58.429Z,219.38
2019-06-10T10:00:58.574Z,202.50
2019-06-10T10:02:02.708Z,219.38
2019-06-10T10:02:59.403Z,247.50
2019-06-10T10:04:00.571Z,444.38
2019-06-10T10:04:58.778Z,444.38
2019-06-10T10:06:09.891Z,337.50
2019-06-10T10:06:59.359Z,365.62
2019-06-10T10:07:58.351Z,455.62
2019-06-10T10:08:58.655Z,292.50
2019-06-10T10:09:58.331Z,388.12
2019-06-10T10:10:59.134Z,303.75
2019-06-10T10:11:58.317Z,247.50
2019-06-10T10:12:58.301Z,371.25
2019-06-10T10:13:58.284Z,1051.88
2019-06-10T10:14:58.275Z,1136.25
2019-06-10T10:15:58.267Z,416.25
2019-06-10T10:17:00.504Z,264.38
2019-06-10T10:17:58.249Z,286.88
2019-06-10T10:19:00.696Z,360.00
2019-06-10T10:19:59.222Z,1783.12
2019-06-10T10:21:00.373Z,1788.75
2019-06-10T10:21:58.659Z,1192.50
2019-06-10T10:22:58.188Z,905.62
2019-06-10T10:24:06.753Z,1282.50
2019-06-10T10:24:59.168Z,894.38
2019-06-10T10:25:58.157Z,343.12
2019-06-10T10:27:01.799Z,264.38
2019-06-10T10:27:59.170Z,331.88
2019-06-10T10:28:58.157Z,281.25
2019-06-10T10:29:58.123Z,236.25
2019-06-10T10:30:58.337Z,225.00
2019-06-10T10:31:58.099Z,219.38
2019-06-10T10:32:58.126Z,213.75
2019-06-10T10:33:58.074Z,208.12
2019-06-10T10:34:58.069Z,208.12
2019-06-10T10:35:58.074Z,208.12
2019-06-10T10:36:58.049Z,219.38
2019-06-10T10:37:58.039Z,230.62
2019-06-10T10:38:58.036Z,258.75
2019-06-10T10:39:58.011Z,264.38
2019-06-10T10:40:59.168Z,275.62
2019-06-10T10:41:57.991Z,264.38
2019-06-10T10:43:16.356Z,270.00
2019-06-10T10:43:58.971Z,281.25
2019-06-10T10:44:59.285Z,298.12
2019-06-10T10:46:00.543Z,298.12
2019-06-10T10:46:58.946Z,292.50
2019-06-10T10:47:57.934Z,292.50
2019-06-10T10:48:57.928Z,303.75
2019-06-10T10:49:57.911Z,348.75
2019-06-10T10:50:57.902Z,371.25
2019-06-10T10:51:57.889Z,348.75
2019-06-10T10:52:57.888Z,354.38
2019-06-10T10:54:29.362Z,365.62
2019-06-10T10:54:58.857Z,354.38
2019-06-10T10:55:57.854Z,348.75
2019-06-10T10:56:59.225Z,354.38
2019-06-10T10:57:57.828Z,348.75
2019-06-10T10:58:58.647Z,326.25
2019-06-10T10:59:57.810Z,315.00
2019-06-10T11:00:58.153Z,286.88
2019-06-10T11:01:57.786Z,258.75
2019-06-10T11:02:57.774Z,247.50
2019-06-10T11:03:59.291Z,241.88
2019-06-10T11:04:57.762Z,236.25
2019-06-10T11:06:00.889Z,236.25
2019-06-10T11:07:00.430Z,236.25
2019-06-10T11:07:57.717Z,225.00
2019-06-10T11:08:57.886Z,225.00
2019-06-10T11:09:57.707Z,219.38
2019-06-10T11:11:00.940Z,213.75
2019-06-10T11:11:58.672Z,208.12
2019-06-10T11:12:57.933Z,208.12
2019-06-10T11:13:58.507Z,202.50
2019-06-10T11:15:01.756Z,202.50
2019-06-10T11:15:58.633Z,202.50
2019-06-10T11:16:59.045Z,196.88
2019-06-10T11:17:58.272Z,196.88
2019-06-10T11:18:58.065Z,196.88
2019-06-10T11:19:57.834Z,196.88
2019-06-10T11:21:01.275Z,196.88
2019-06-10T11:21:58.574Z,202.50
2019-06-10T11:22:58.001Z,208.12
2019-06-10T11:24:01.418Z,213.75
2019-06-10T11:24:58.535Z,219.38
2019-06-10T11:25:58.971Z,225.00
2019-06-10T11:26:58.470Z,225.00
2019-06-10T11:27:57.522Z,225.00
2019-06-10T11:28:57.949Z,230.62
2019-06-10T11:29:59.041Z,236.25
2019-06-10T11:30:58.676Z,241.88
2019-06-10T11:31:58.723Z,253.12
2019-06-10T11:32:59.595Z,264.38
2019-06-10T11:33:59.095Z,275.62
2019-06-10T11:34:58.673Z,281.25
2019-06-10T11:35:59.225Z,292.50
2019-06-10T11:36:58.297Z,298.12
2019-06-10T11:37:58.206Z,315.00
2019-06-10T11:38:59.069Z,326.25
2019-06-10T11:39:57.390Z,331.88
2019-06-10T11:40:59.959Z,337.50
2019-06-10T11:41:57.718Z,292.50
2019-06-10T11:42:59.700Z,264.38
2019-06-10T11:43:59.249Z,236.25
2019-06-10T11:44:59.506Z,225.00
2019-06-10T11:46:02.996Z,213.75
2019-06-10T11:46:59.755Z,208.12
2019-06-10T11:47:58.269Z,208.12
2019-06-10T11:48:59.043Z,213.75
2019-06-10T11:49:58.084Z,213.75
2019-06-10T11:51:00.235Z,219.38
2019-06-10T11:51:59.477Z,230.62
2019-06-10T11:53:00.531Z,236.25
2019-06-10T11:53:58.662Z,241.88
2019-06-10T11:55:10.941Z,247.50
2019-06-10T11:55:58.209Z,253.12
2019-06-10T11:56:58.566Z,258.75
2019-06-10T11:57:58.164Z,264.38
2019-06-10T11:59:00.056Z,264.38
2019-06-10T11:59:58.188Z,270.00
2019-06-10T12:00:59.344Z,281.25
2019-06-10T12:02:00.374Z,286.88
2019-06-10T12:02:58.978Z,292.50
2019-06-10T12:03:58.902Z,286.88
2019-06-10T12:05:00.303Z,275.62
2019-06-10T12:05:59.377Z,258.75
2019-06-10T12:06:57.185Z,241.88
2019-06-10T12:07:59.849Z,230.62
2019-06-10T12:08:59.435Z,219.38
2019-06-10T12:10:00.810Z,213.75
2019-06-10T12:11:00.266Z,219.38
2019-06-10T12:12:01.394Z,225.00
2019-06-10T12:13:00.565Z,230.62
2019-06-10T12:14:02.868Z,236.25
2019-06-10T12:14:59.950Z,236.25
2019-06-10T12:17:24.664Z,236.25
2019-06-10T12:18:05.244Z,236.25
2019-06-10T12:18:58.994Z,241.88
2019-06-10T12:20:00.627Z,247.50
2019-06-10T12:21:01.690Z,247.50
2019-06-10T12:22:02.398Z,247.50
2019-06-10T12:22:58.802Z,241.88
2019-06-10T12:24:00.798Z,230.62
2019-06-10T12:25:26.742Z,219.38
2019-06-10T12:25:59.420Z,208.12
2019-06-10T12:26:58.716Z,202.50
2019-06-10T12:27:59.708Z,202.50
2019-06-10T12:28:59.377Z,202.50
2019-06-10T12:29:58.561Z,202.50
2019-06-10T12:31:01.132Z,202.50
2019-06-10T12:32:01.267Z,208.12
2019-06-10T12:32:59.522Z,213.75
2019-06-10T12:33:57.643Z,213.75
2019-06-10T12:34:57.965Z,219.38
2019-06-10T12:36:00.313Z,225.00
2019-06-10T12:37:02.235Z,219.38
2019-06-10T12:37:59.794Z,219.38
2019-06-10T12:39:01.517Z,208.12
2019-06-10T12:39:59.397Z,196.88
2019-06-10T12:40:58.934Z,191.25
2019-06-10T12:41:59.242Z,202.50
2019-06-10T12:42:59.367Z,213.75
2019-06-10T12:43:56.750Z,225.00
2019-06-10T12:44:57.690Z,253.12
2019-06-10T12:45:57.867Z,286.88
2019-06-10T12:46:58.966Z,292.50
2019-06-10T12:47:58.378Z,309.38
2019-06-10T12:49:00.091Z,309.38